Time;durP1;ratioP1;P1;durP2;ratioP2;P2;SDS_P1;SDS_P2;PMS_P1;PMS_P2;Temp;Humidity;BMP_temperature;BMP_pressure;BME280_temperature;BME280_humidity;BME280_pressure;Samples;Min_cycle;Max_cycle;Signal;HPM_P1;HPM_P2
2023/08/29 00:00:26;;;;;;;2.22;1.95;;;16.50;99.90;;;;;;4965084;28;20077;-72
2023/08/29 00:02:52;;;;;;;1.85;1.13;;;16.50;99.90;;;;;;4959964;28;20047;-71
2023/08/29 00:05:19;;;;;;;3.60;1.60;;;16.50;99.90;;;;;;4962934;28;20019;-72
2023/08/29 00:07:45;;;;;;;2.05;1.50;;;16.50;99.90;;;;;;4962989;28;20031;-72
2023/08/29 00:10:12;;;;;;;2.63;1.20;;;16.50;99.90;;;;;;4954476;29;20396;-72
2023/08/29 00:12:43;;;;;;;2.40;1.60;;;16.50;99.90;;;;;;4958098;28;20563;-72
2023/08/29 00:15:12;;;;;;;3.28;1.48;;;16.40;99.90;;;;;;4942914;29;20035;-71
2023/08/29 00:17:40;;;;;;;1.83;1.40;;;16.40;99.90;;;;;;4956068;28;20028;-72
2023/08/29 00:20:07;;;;;;;2.75;1.55;;;16.40;99.90;;;;;;4956421;29;20031;-72
2023/08/29 00:22:32;;;;;;;3.33;1.65;;;16.40;99.90;;;;;;4969324;28;20027;-71
2023/08/29 00:24:58;;;;;;;2.72;1.40;;;16.40;99.90;;;;;;4962071;28;20553;-72
2023/08/29 00:27:24;;;;;;;2.65;1.40;;;16.30;99.90;;;;;;4963337;28;20035;-72
2023/08/29 00:29:50;;;;;;;1.40;1.17;;;16.30;99.90;;;;;;4956738;28;20024;-72
2023/08/29 00:32:16;;;;;;;3.10;1.63;;;16.30;99.90;;;;;;4945904;28;20031;-72
2023/08/29 00:34:42;;;;;;;3.30;1.50;;;16.20;99.90;;;;;;4968939;28;20707;-72
2023/08/29 00:37:10;;;;;;;1.67;1.45;;;16.20;99.90;;;;;;4959483;28;20583;-72
2023/08/29 00:39:39;;;;;;;2.90;1.50;;;16.20;99.90;;;;;;4968479;28;20093;-72
2023/08/29 00:42:05;;;;;;;3.22;1.60;;;16.10;99.90;;;;;;4963945;28;20026;-71
2023/08/29 00:44:30;;;;;;;3.00;1.45;;;16.10;99.90;;;;;;4969541;28;20015;-72
2023/08/29 00:46:57;;;;;;;2.67;1.60;;;16.10;99.90;;;;;;4964961;28;20940;-71
2023/08/29 00:49:25;;;;;;;2.08;1.30;;;16.10;99.90;;;;;;4961303;28;20031;-71
2023/08/29 00:51:51;;;;;;;2.42;1.42;;;16.10;99.90;;;;;;4967404;28;20110;-72
2023/08/29 00:54:21;;;;;;;2.10;1.40;;;16.00;99.90;;;;;;4951522;28;20486;-72
2023/08/29 00:56:48;;;;;;;2.35;1.80;;;16.00;99.90;;;;;;4961845;28;20023;-72
2023/08/29 00:59:21;;;;;;;2.75;1.33;;;16.00;99.90;;;;;;4962429;28;20025;-72
2023/08/29 01:01:47;;;;;;;2.53;1.50;;;16.00;99.90;;;;;;4961658;28;20031;-71
2023/08/29 01:04:13;;;;;;;2.30;1.67;;;16.00;99.90;;;;;;4969060;28;20030;-72
2023/08/29 01:06:39;;;;;;;2.72;1.60;;;16.00;99.90;;;;;;4961556;28;20489;-72
2023/08/29 01:09:08;;;;;;;3.05;1.70;;;16.00;99.90;;;;;;4964985;28;20564;-72
2023/08/29 01:12:17;;;;;;;3.85;1.45;;;15.90;99.90;;;;;;4959058;28;20054;-72
2023/08/29 01:15:05;;;;;;;2.85;1.52;;;15.90;99.90;;;;;;4956587;28;20019;-71
2023/08/29 01:17:30;;;;;;;3.10;1.45;;;15.90;99.90;;;;;;4943545;28;20070;-71
2023/08/29 01:19:58;;;;;;;5.40;1.50;;;15.90;99.90;;;;;;4946696;29;20027;-71
2023/08/29 01:22:43;;;;;;;3.10;1.58;;;15.90;99.90;;;;;;4968535;28;20035;-70
2023/08/29 01:25:34;;;;;;;3.10;1.35;;;15.90;99.90;;;;;;4967098;28;20662;-72
2023/08/29 01:28:04;;;;;;;2.25;1.52;;;15.80;99.90;;;;;;4950508;28;20547;-71
2023/08/29 01:30:32;;;;;;;4.30;1.30;;;15.90;99.90;;;;;;4960610;28;20521;-71
2023/08/29 01:33:02;;;;;;;2.38;1.30;;;15.80;99.90;;;;;;4967437;28;20277;-71
2023/08/29 01:35:27;;;;;;;4.32;1.67;;;15.80;99.90;;;;;;4955205;29;20023;-71
2023/08/29 01:37:53;;;;;;;3.40;1.40;;;15.80;99.90;;;;;;4965809;28;20619;-71
2023/08/29 01:40:19;;;;;;;3.22;1.60;;;15.80;99.90;;;;;;4954907;29;20043;-72
2023/08/29 01:42:44;;;;;;;2.65;1.38;;;15.70;99.90;;;;;;4958888;28;20099;-71
2023/08/29 01:45:10;;;;;;;1.88;1.25;;;15.70;99.90;;;;;;4965712;28;20087;-72
2023/08/29 01:47:37;;;;;;;3.05;1.42;;;15.70;99.90;;;;;;4959831;28;20035;-72
2023/08/29 01:50:04;;;;;;;5.20;1.73;;;15.70;99.90;;;;;;4967029;28;20020;-72
2023/08/29 01:52:34;;;;;;;3.58;1.35;;;15.70;99.90;;;;;;4965525;28;20512;-72
2023/08/29 01:55:00;;;;;;;2.63;1.40;;;15.60;99.90;;;;;;4954472;28;20086;-72
2023/08/29 01:57:28;;;;;;;2.97;1.58;;;15.60;99.90;;;;;;4965980;28;20061;-71
2023/08/29 01:59:54;;;;;;;2.05;1.33;;;15.60;99.90;;;;;;4960172;28;20034;-72
2023/08/29 02:02:20;;;;;;;2.58;1.30;;;15.60;99.90;;;;;;4963398;28;20035;-71
2023/08/29 02:04:46;;;;;;;4.20;1.40;;;15.60;99.90;;;;;;4968066;28;20070;-72
2023/08/29 02:07:14;;;;;;;2.80;1.27;;;15.60;99.90;;;;;;4962109;28;20739;-72
2023/08/29 02:09:43;;;;;;;3.03;1.27;;;15.60;99.90;;;;;;4958867;28;20161;-71
2023/08/29 02:12:08;;;;;;;2.50;1.52;;;15.50;99.90;;;;;;4969318;28;20042;-72
2023/08/29 02:14:34;;;;;;;3.08;1.33;;;15.50;99.90;;;;;;4956521;28;20207;-71
2023/08/29 02:17:00;;;;;;;2.90;1.58;;;15.60;99.90;;;;;;4949767;28;20024;-72
2023/08/29 02:19:26;;;;;;;1.75;1.40;;;15.50;99.90;;;;;;4961321;28;20048;-71
2023/08/29 02:21:51;;;;;;;1.58;1.38;;;15.50;99.90;;;;;;4960731;28;20394;-72
2023/08/29 02:24:17;;;;;;;2.35;1.50;;;15.50;99.90;;;;;;4942982;28;20057;-72
2023/08/29 02:26:43;;;;;;;13.70;2.08;;;15.50;99.90;;;;;;4964311;28;20026;-72
2023/08/29 02:29:08;;;;;;;4.60;1.65;;;15.50;99.90;;;;;;4967401;28;20062;-72
2023/08/29 02:31:34;;;;;;;2.28;1.48;;;15.50;99.90;;;;;;4963153;28;20030;-71
2023/08/29 02:34:00;;;;;;;1.65;1.17;;;15.40;99.90;;;;;;4959750;28;20026;-71
2023/08/29 02:36:25;;;;;;;1.70;1.40;;;15.40;99.90;;;;;;4966707;28;20019;-71
2023/08/29 02:38:53;;;;;;;2.03;1.17;;;15.40;99.90;;;;;;4953505;28;20536;-72
2023/08/29 02:41:21;;;;;;;2.03;1.10;;;15.40;99.90;;;;;;4957034;28;20679;-72
2023/08/29 02:43:47;;;;;;;2.33;1.42;;;15.30;99.90;;;;;;4953806;28;20038;-71
2023/08/29 02:46:13;;;;;;;3.47;1.63;;;15.30;99.90;;;;;;4967704;28;20023;-72
2023/08/29 02:48:38;;;;;;;2.58;1.50;;;15.30;99.90;;;;;;4954132;28;20031;-71
2023/08/29 02:51:04;;;;;;;2.63;1.30;;;15.20;99.90;;;;;;4955360;28;20028;-71
2023/08/29 02:53:29;;;;;;;2.78;1.40;;;15.20;99.90;;;;;;4954377;28;20078;-71
2023/08/29 02:55:56;;;;;;;2.33;1.30;;;15.20;99.90;;;;;;4967120;28;20027;-72
2023/08/29 02:58:22;;;;;;;2.33;1.60;;;15.20;99.90;;;;;;4958733;28;20022;-71
2023/08/29 03:00:55;;;;;;;1.67;1.45;;;15.10;99.90;;;;;;4950022;28;20095;-71
2023/08/29 03:03:21;;;;;;;2.88;1.20;;;15.10;99.90;;;;;;4965635;28;20042;-71
2023/08/29 03:05:56;;;;;;;3.55;1.30;;;15.00;99.90;;;;;;4943274;29;20039;-71
2023/08/29 03:08:22;;;;;;;3.50;1.60;;;15.00;99.90;;;;;;4966933;28;20046;-71
2023/08/29 03:10:49;;;;;;;2.42;1.40;;;15.00;99.90;;;;;;4957847;28;20030;-71
2023/08/29 03:13:18;;;;;;;1.92;1.50;;;15.00;99.90;;;;;;4954509;28;20110;-71
2023/08/29 03:15:45;;;;;;;4.07;1.80;;;15.00;99.90;;;;;;4954857;28;20074;-72
2023/08/29 03:18:10;;;;;;;2.25;1.52;;;14.90;99.90;;;;;;4963751;28;20035;-72
2023/08/29 03:20:43;;;;;;;3.40;1.60;;;14.90;99.90;;;;;;4943735;28;20030;-71
2023/08/29 03:23:11;;;;;;;2.83;1.50;;;14.90;99.90;;;;;;4966995;28;20043;-71
2023/08/29 03:25:37;;;;;;;2.03;1.50;;;14.90;99.90;;;;;;4953738;28;20047;-71
2023/08/29 03:28:03;;;;;;;1.92;1.30;;;14.90;99.90;;;;;;4964566;28;20496;-71
2023/08/29 03:30:30;;;;;;;2.80;1.70;;;14.90;99.90;;;;;;4957416;28;20106;-71
2023/08/29 03:32:55;;;;;;;2.80;1.40;;;14.90;99.90;;;;;;4956946;29;20019;-72
2023/08/29 03:35:21;;;;;;;5.25;1.48;;;14.80;99.90;;;;;;4958346;28;20034;-71
2023/08/29 03:37:47;;;;;;;2.22;1.52;;;14.70;99.90;;;;;;4970507;28;20051;-72
2023/08/29 03:40:13;;;;;;;2.67;1.48;;;14.60;99.90;;;;;;4949340;28;20844;-71
2023/08/29 03:42:41;;;;;;;4.43;1.50;;;14.60;99.90;;;;;;4962470;28;20027;-72
2023/08/29 03:45:10;;;;;;;2.47;1.30;;;14.50;99.90;;;;;;4967998;28;20035;-72
2023/08/29 03:47:37;;;;;;;2.53;1.75;;;14.40;99.90;;;;;;4939904;28;20335;-71
2023/08/29 03:50:03;;;;;;;2.20;1.42;;;14.40;99.90;;;;;;4969211;28;20043;-72
2023/08/29 03:52:29;;;;;;;2.10;1.48;;;14.40;99.90;;;;;;4939249;29;20019;-71
2023/08/29 03:54:55;;;;;;;3.17;1.50;;;14.40;99.90;;;;;;4970343;28;20485;-71
2023/08/29 03:57:27;;;;;;;2.00;1.50;;;14.40;99.90;;;;;;4955860;28;20531;-71
2023/08/29 03:59:53;;;;;;;2.45;1.65;;;14.40;99.90;;;;;;4970093;28;20039;-72
2023/08/29 04:02:20;;;;;;;2.17;1.63;;;14.40;99.90;;;;;;4966357;28;20057;-71
2023/08/29 04:04:50;;;;;;;1.77;1.48;;;14.40;99.90;;;;;;4958639;28;20034;-73
2023/08/29 04:07:16;;;;;;;3.80;1.58;;;14.40;99.90;;;;;;4966968;28;20023;-71
2023/08/29 04:09:41;;;;;;;2.58;1.70;;;14.40;99.90;;;;;;4957580;28;20559;-72
2023/08/29 04:12:10;;;;;;;2.22;1.50;;;14.40;99.90;;;;;;4962299;28;20485;-72
2023/08/29 04:14:39;;;;;;;2.15;1.60;;;14.40;99.90;;;;;;4965971;28;20437;-72
2023/08/29 04:17:05;;;;;;;11.73;2.10;;;14.40;99.90;;;;;;4957955;28;20094;-71
2023/08/29 04:19:33;;;;;;;2.50;1.90;;;14.30;99.90;;;;;;4963336;28;20069;-71
2023/08/29 04:21:59;;;;;;;5.57;2.00;;;14.30;99.90;;;;;;4970681;28;20102;-71
2023/08/29 04:24:24;;;;;;;5.28;2.53;;;14.30;99.90;;;;;;4961654;28;20075;-71
2023/08/29 04:26:50;;;;;;;3.33;2.17;;;14.30;99.90;;;;;;4963878;28;20027;-72
2023/08/29 04:29:16;;;;;;;2.28;1.90;;;14.30;99.90;;;;;;4949921;28;20109;-71
2023/08/29 04:31:43;;;;;;;3.08;2.20;;;14.30;99.90;;;;;;4947252;29;20023;-72
2023/08/29 04:34:09;;;;;;;3.92;1.75;;;14.30;99.90;;;;;;4957458;28;20116;-71
2023/08/29 04:36:35;;;;;;;4.70;2.30;;;14.30;99.90;;;;;;4954017;28;20507;-72
2023/08/29 04:39:03;;;;;;;4.18;2.03;;;14.30;99.90;;;;;;4965446;28;20075;-72
2023/08/29 04:41:32;;;;;;;3.72;1.88;;;14.30;99.90;;;;;;4968958;28;20595;-71
2023/08/29 04:43:57;;;;;;;3.65;2.05;;;14.30;99.90;;;;;;4968453;28;20027;-71
2023/08/29 04:46:23;;;;;;;5.13;1.95;;;14.30;99.90;;;;;;4961733;28;20058;-71
2023/08/29 04:48:49;;;;;;;3.15;1.73;;;14.30;99.90;;;;;;4963719;28;20031;-71
2023/08/29 04:51:14;;;;;;;6.60;2.10;;;14.30;99.90;;;;;;4957395;28;20359;-72
2023/08/29 04:53:40;;;;;;;4.63;1.80;;;14.30;99.90;;;;;;4963459;28;20493;-71
2023/08/29 04:56:07;;;;;;;3.80;1.92;;;14.30;99.90;;;;;;4946935;28;20027;-71
2023/08/29 04:58:32;;;;;;;1.83;1.60;;;14.30;99.90;;;;;;4967470;28;20023;-71
2023/08/29 05:00:58;;;;;;;3.25;1.95;;;14.30;99.90;;;;;;4965091;28;20935;-72
2023/08/29 05:03:24;;;;;;;5.38;1.95;;;14.30;99.90;;;;;;4967014;28;20034;-71
2023/08/29 05:05:51;;;;;;;4.28;1.92;;;14.30;99.90;;;;;;4965053;28;20053;-71
2023/08/29 05:08:18;;;;;;;3.25;1.73;;;14.30;99.90;;;;;;4965691;28;20031;-71
2023/08/29 05:10:43;;;;;;;2.58;2.00;;;14.30;99.90;;;;;;4944343;29;20512;-71
2023/08/29 05:13:12;;;;;;;4.15;1.98;;;14.30;99.90;;;;;;4959698;28;20023;-71
2023/08/29 05:15:38;;;;;;;3.80;2.03;;;14.30;99.90;;;;;;4961940;28;20607;-72
2023/08/29 05:18:04;;;;;;;3.75;1.90;;;14.30;99.90;;;;;;4956731;28;20112;-72
2023/08/29 05:20:29;;;;;;;2.92;1.98;;;14.20;99.90;;;;;;4959086;28;20059;-72
2023/08/29 05:22:55;;;;;;;4.50;1.92;;;14.20;99.90;;;;;;4955152;28;20651;-72
2023/08/29 05:25:21;;;;;;;5.95;2.20;;;14.20;99.90;;;;;;4938633;29;20497;-72
2023/08/29 05:27:47;;;;;;;3.17;2.08;;;14.20;99.90;;;;;;4956719;28;20034;-72
2023/08/29 05:30:13;;;;;;;3.13;2.03;;;14.20;99.90;;;;;;4965867;28;20477;-72
2023/08/29 05:32:39;;;;;;;2.45;1.80;;;14.20;99.90;;;;;;4962001;28;20074;-71
2023/08/29 05:35:06;;;;;;;4.50;2.05;;;14.20;99.90;;;;;;4959836;28;20492;-72
2023/08/29 05:37:35;;;;;;;3.58;1.90;;;14.20;99.90;;;;;;4963965;28;20055;-72
2023/08/29 05:40:00;;;;;;;3.78;2.05;;;14.30;99.90;;;;;;4957550;28;20035;-71
2023/08/29 05:42:26;;;;;;;4.55;2.58;;;14.20;99.90;;;;;;4955028;28;20027;-71
2023/08/29 05:44:52;;;;;;;5.43;2.13;;;14.30;99.90;;;;;;4955937;28;20035;-72
2023/08/29 05:47:18;;;;;;;6.03;2.28;;;14.30;99.90;;;;;;4963572;28;20026;-72
2023/08/29 05:49:43;;;;;;;3.45;2.00;;;14.30;99.90;;;;;;4940045;28;20015;-72
2023/08/29 05:52:09;;;;;;;3.28;1.98;;;14.30;99.90;;;;;;4965183;28;20050;-72
2023/08/29 05:54:36;;;;;;;3.72;2.20;;;14.30;99.90;;;;;;4963520;28;20639;-72
2023/08/29 05:57:03;;;;;;;3.67;2.30;;;14.30;99.90;;;;;;4961933;28;20023;-72
2023/08/29 05:59:29;;;;;;;4.38;2.20;;;14.30;99.90;;;;;;4950793;28;20118;-72
2023/08/29 06:01:54;;;;;;;2.80;2.03;;;14.30;99.90;;;;;;4962472;28;20110;-72
2023/08/29 06:04:20;;;;;;;3.50;1.98;;;14.30;99.90;;;;;;4960604;28;20046;-72
2023/08/29 06:06:49;;;;;;;2.85;2.00;;;14.30;99.90;;;;;;4965192;28;20068;-72
2023/08/29 06:09:18;;;;;;;7.22;2.70;;;14.30;99.90;;;;;;4949392;28;20055;-72
2023/08/29 06:11:44;;;;;;;5.03;2.55;;;14.30;99.90;;;;;;4952632;28;20034;-72
2023/08/29 06:14:10;;;;;;;5.28;2.22;;;14.30;99.90;;;;;;4971224;28;20018;-72
2023/08/29 06:16:35;;;;;;;3.67;2.50;;;14.30;99.90;;;;;;4959471;28;20691;-72
2023/08/29 06:19:01;;;;;;;4.55;2.55;;;14.40;99.90;;;;;;4966840;28;20062;-72
2023/08/29 06:21:27;;;;;;;8.57;3.30;;;14.40;99.90;;;;;;4966510;28;20027;-72
2023/08/29 06:23:52;;;;;;;4.10;2.40;;;14.40;99.90;;;;;;4962175;28;20122;-72
2023/08/29 06:26:18;;;;;;;6.20;2.58;;;14.40;99.90;;;;;;4958408;28;20110;-72
2023/08/29 06:28:44;;;;;;;4.90;2.58;;;14.50;99.90;;;;;;4957751;28;20178;-72
2023/08/29 06:31:09;;;;;;;6.35;3.20;;;14.50;99.90;;;;;;4955757;28;20038;-72
2023/08/29 06:33:36;;;;;;;5.40;2.42;;;14.50;99.90;;;;;;4953717;29;20484;-72
2023/08/29 06:36:05;;;;;;;4.28;2.88;;;14.60;99.90;;;;;;4938523;28;20029;-72
2023/08/29 06:38:31;;;;;;;5.28;2.90;;;14.60;99.90;;;;;;4963064;28;20058;-71
2023/08/29 06:40:58;;;;;;;4.00;2.70;;;14.60;99.90;;;;;;4959229;28;20031;-71
2023/08/29 06:43:25;;;;;;;4.55;2.30;;;14.60;99.90;;;;;;4938136;29;20023;-72
2023/08/29 06:45:50;;;;;;;5.88;2.60;;;14.60;99.90;;;;;;4964980;28;20020;-72
2023/08/29 06:48:16;;;;;;;4.72;2.60;;;14.60;99.90;;;;;;4955595;28;20046;-72
2023/08/29 06:50:42;;;;;;;4.00;2.60;;;14.60;99.90;;;;;;4965788;28;20090;-72
2023/08/29 06:53:07;;;;;;;4.90;2.60;;;14.70;99.90;;;;;;4959298;28;20023;-72
2023/08/29 06:55:34;;;;;;;3.55;2.70;;;14.70;99.90;;;;;;4962523;28;20034;-72
2023/08/29 06:58:02;;;;;;;5.07;2.63;;;14.70;99.90;;;;;;4965616;28;20482;-72
2023/08/29 07:00:28;;;;;;;4.03;2.67;;;14.80;99.90;;;;;;4962665;28;20390;-72
2023/08/29 07:03:00;;;;;;;4.38;2.50;;;14.90;99.90;;;;;;4945741;28;20087;-71
2023/08/29 07:05:29;;;;;;;3.22;2.28;;;15.00;99.90;;;;;;4950957;28;20015;-71
2023/08/29 07:07:59;;;;;;;4.75;2.88;;;15.10;99.90;;;;;;4956673;28;20038;-72
2023/08/29 07:10:29;;;;;;;1.83;1.52;;;15.20;99.90;;;;;;4941801;28;20112;-72
2023/08/29 07:12:55;;;;;;;3.92;2.05;;;15.30;99.90;;;;;;4955461;28;20042;-72
2023/08/29 07:15:21;;;;;;;4.63;2.67;;;15.40;99.90;;;;;;4953733;28;20023;-72
2023/08/29 07:17:46;;;;;;;4.90;2.13;;;15.50;99.90;;;;;;4960708;28;20038;-72
2023/08/29 07:20:12;;;;;;;4.93;2.35;;;15.70;99.90;;;;;;4967700;28;20053;-72
2023/08/29 07:22:42;;;;;;;6.55;2.45;;;15.70;99.90;;;;;;4959987;28;20094;-71
2023/08/29 07:25:12;;;;;;;3.35;1.98;;;15.80;99.90;;;;;;4942412;29;20020;-72
2023/08/29 07:27:37;;;;;;;3.65;2.20;;;15.90;99.90;;;;;;4963684;28;20054;-71
2023/08/29 07:30:04;;;;;;;3.25;2.15;;;16.00;99.90;;;;;;4958139;28;20053;-72
2023/08/29 07:32:30;;;;;;;3.53;1.92;;;16.10;99.90;;;;;;4959352;28;20023;-72
2023/08/29 07:35:02;;;;;;;3.05;2.05;;;16.20;99.90;;;;;;4961286;28;20054;-72
2023/08/29 07:37:28;;;;;;;3.50;1.85;;;16.30;99.90;;;;;;4963995;28;20058;-71
2023/08/29 07:39:53;;;;;;;3.33;2.13;;;16.30;99.90;;;;;;4966720;28;20060;-72
2023/08/29 07:42:19;;;;;;;6.88;2.10;;;16.40;99.90;;;;;;4961414;28;20019;-72
2023/08/29 07:44:45;;;;;;;5.72;2.42;;;16.50;99.90;;;;;;4961456;28;20050;-71
2023/08/29 07:47:10;;;;;;;4.85;2.40;;;16.50;99.90;;;;;;4955531;28;20035;-72
2023/08/29 07:49:36;;;;;;;3.67;2.10;;;16.60;99.90;;;;;;4940572;28;20027;-72
2023/08/29 07:52:02;;;;;;;6.45;2.00;;;16.60;99.90;;;;;;4962250;28;20030;-72
2023/08/29 07:54:28;;;;;;;3.63;2.10;;;16.70;99.90;;;;;;4959119;28;20032;-72
2023/08/29 07:56:54;;;;;;;5.93;2.28;;;16.70;99.90;;;;;;4963709;28;20019;-72
2023/08/29 07:59:20;;;;;;;4.90;2.20;;;16.80;99.90;;;;;;4958750;28;20034;-72
2023/08/29 08:01:46;;;;;;;3.08;1.83;;;16.80;99.90;;;;;;4961003;28;20093;-72
2023/08/29 08:04:12;;;;;;;4.10;1.52;;;16.80;99.90;;;;;;4945917;28;20065;-72
2023/08/29 08:06:39;;;;;;;2.78;1.50;;;16.90;99.90;;;;;;4956806;28;20058;-72
2023/08/29 08:09:06;;;;;;;5.68;1.67;;;16.90;99.90;;;;;;4954906;29;20113;-72
2023/08/29 08:11:32;;;;;;;4.38;1.50;;;17.00;99.90;;;;;;4959173;28;20038;-72
2023/08/29 08:14:00;;;;;;;2.78;1.40;;;17.00;99.90;;;;;;4959147;28;20015;-72
2023/08/29 08:16:26;;;;;;;2.95;1.60;;;17.00;99.90;;;;;;4966477;28;20037;-71
2023/08/29 08:18:52;;;;;;;4.82;1.77;;;17.10;99.90;;;;;;4961685;28;20027;-72
2023/08/29 08:21:20;;;;;;;4.93;2.00;;;17.10;99.90;;;;;;4951585;28;20026;-72
2023/08/29 08:23:49;;;;;;;4.22;1.80;;;17.10;99.90;;;;;;4956690;28;20030;-72
2023/08/29 08:26:15;;;;;;;7.45;2.25;;;17.20;99.90;;;;;;4968284;28;20066;-72
2023/08/29 08:28:40;;;;;;;4.22;2.00;;;17.20;99.90;;;;;;4962253;28;20085;-71
2023/08/29 08:31:06;;;;;;;4.25;1.38;;;17.20;99.90;;;;;;4969404;28;20058;-72
2023/08/29 08:33:32;;;;;;;2.08;1.30;;;17.30;99.90;;;;;;4963520;28;20074;-72
2023/08/29 08:35:58;;;;;;;3.70;1.95;;;17.30;99.90;;;;;;4960076;28;20082;-72
2023/08/29 08:38:23;;;;;;;6.32;1.95;;;17.30;99.90;;;;;;4960694;28;20215;-72
2023/08/29 08:40:49;;;;;;;3.65;1.55;;;17.30;99.90;;;;;;4958746;28;20039;-72
2023/08/29 08:43:16;;;;;;;2.88;1.30;;;17.40;99.90;;;;;;4939655;28;20027;-71
2023/08/29 08:45:43;;;;;;;5.88;1.83;;;17.40;99.90;;;;;;4937099;29;20031;-72
2023/08/29 08:48:08;;;;;;;3.28;1.60;;;17.50;99.90;;;;;;4948277;29;20042;-72
2023/08/29 08:50:34;;;;;;;2.70;1.20;;;17.50;99.90;;;;;;4961752;28;20019;-72
2023/08/29 08:53:02;;;;;;;4.63;1.67;;;17.60;99.90;;;;;;4965912;28;20536;-72
2023/08/29 08:55:28;;;;;;;2.20;1.38;;;17.60;99.90;;;;;;4962484;28;20481;-72
2023/08/29 08:57:57;;;;;;;2.05;1.17;;;17.70;99.90;;;;;;4961003;28;20023;-72
2023/08/29 09:00:22;;;;;;;2.28;1.23;;;17.70;99.90;;;;;;4957903;28;20110;-72
2023/08/29 09:02:49;;;;;;;2.47;1.02;;;17.70;99.90;;;;;;4960584;28;20055;-72
2023/08/29 09:05:15;;;;;;;1.95;1.42;;;17.80;99.90;;;;;;4961857;28;20018;-72
2023/08/29 09:07:41;;;;;;;3.25;1.55;;;17.80;99.90;;;;;;4956862;28;20024;-72
2023/08/29 09:10:19;;;;;;;4.20;1.73;;;17.90;99.90;;;;;;4956918;28;20023;-71
2023/08/29 09:12:49;;;;;;;3.15;1.42;;;17.90;99.90;;;;;;4965223;28;20046;-72
2023/08/29 09:15:16;;;;;;;2.80;1.63;;;18.00;99.90;;;;;;4967547;28;20062;-72
2023/08/29 09:17:49;;;;;;;7.28;1.70;;;18.00;99.90;;;;;;4953509;28;20054;-72
2023/08/29 09:20:18;;;;;;;2.17;1.10;;;18.10;99.90;;;;;;4950721;28;20482;-72
2023/08/29 09:22:45;;;;;;;3.72;1.48;;;18.10;99.90;;;;;;4956134;28;20035;-72
2023/08/29 09:25:11;;;;;;;3.63;1.23;;;18.10;99.90;;;;;;4949521;28;20066;-72
2023/08/29 09:27:47;;;;;;;1.05;0.95;;;18.20;99.90;;;;;;4960577;28;20058;-72
2023/08/29 09:30:19;;;;;;;3.10;1.40;;;18.20;99.90;;;;;;4962693;28;20046;-72
2023/08/29 09:32:47;;;;;;;2.47;1.00;;;18.20;99.90;;;;;;4967244;28;20046;-72
2023/08/29 09:35:14;;;;;;;1.35;1.08;;;18.30;99.90;;;;;;4937224;29;20035;-72
2023/08/29 09:37:50;;;;;;;3.95;1.30;;;18.40;99.90;;;;;;4960973;28;20059;-72
2023/08/29 09:40:20;;;;;;;4.32;1.35;;;18.40;99.90;;;;;;4962921;28;20035;-72
2023/08/29 09:43:00;;;;;;;2.60;1.00;;;18.50;99.90;;;;;;4965707;28;20034;-72
2023/08/29 09:45:32;;;;;;;2.72;1.38;;;18.60;99.90;;;;;;4962892;28;20042;-72
2023/08/29 09:48:08;;;;;;;1.60;1.33;;;18.60;99.90;;;;;;4970571;28;20023;-72
2023/08/29 09:50:35;;;;;;;3.92;1.33;;;18.60;99.90;;;;;;4952697;29;20023;-72
2023/08/29 09:53:04;;;;;;;1.52;1.13;;;18.70;99.90;;;;;;4958333;28;20118;-72
2023/08/29 09:55:40;;;;;;;4.88;0.95;;;18.70;99.90;;;;;;4943322;29;20050;-72
2023/08/29 09:58:07;;;;;;;1.95;1.00;;;18.80;99.90;;;;;;4962113;28;20027;-72
2023/08/29 10:00:35;;;;;;;3.08;1.13;;;18.80;99.90;;;;;;4957040;28;20027;-72
2023/08/29 10:03:07;;;;;;;1.52;1.10;;;18.90;99.90;;;;;;4956571;28;20106;-72
2023/08/29 10:05:35;;;;;;;1.85;1.10;;;19.00;99.90;;;;;;4954286;28;20027;-72
2023/08/29 10:08:11;;;;;;;2.72;1.20;;;19.00;99.90;;;;;;4938144;28;20203;-72
2023/08/29 10:10:48;;;;;;;1.38;0.80;;;19.10;99.90;;;;;;4958014;28;20019;-72
2023/08/29 10:13:15;;;;;;;4.47;1.00;;;19.10;99.90;;;;;;4953816;29;20066;-72
2023/08/29 10:15:46;;;;;;;2.00;1.30;;;19.20;99.90;;;;;;4967410;28;20503;-72
2023/08/29 10:18:12;;;;;;;3.15;1.50;;;19.30;99.90;;;;;;4957982;28;20043;-72
2023/08/29 10:20:43;;;;;;;2.33;1.00;;;19.40;99.90;;;;;;4963659;28;20034;-72
2023/08/29 10:23:10;;;;;;;2.42;1.50;;;19.50;99.90;;;;;;4956817;28;20034;-72
2023/08/29 10:25:38;;;;;;;3.67;1.58;;;19.60;99.90;;;;;;4950168;28;20031;-72
2023/08/29 10:28:09;;;;;;;4.57;1.92;;;19.70;99.90;;;;;;4957643;28;20520;-72
2023/08/29 10:30:41;;;;;;;4.22;1.92;;;19.80;99.90;;;;;;4954246;28;20035;-73
2023/08/29 10:33:07;;;;;;;2.58;1.90;;;19.80;99.90;;;;;;4954605;28;20054;-72
2023/08/29 10:35:34;;;;;;;4.32;1.98;;;19.80;99.90;;;;;;4953750;28;20043;-72
2023/08/29 10:38:18;;;;;;;2.78;1.80;;;19.90;99.90;;;;;;4957013;28;20051;-72
2023/08/29 10:40:46;;;;;;;4.60;1.60;;;20.00;99.90;;;;;;4954332;28;20051;-72
2023/08/29 10:43:25;;;;;;;3.28;2.13;;;20.10;99.90;;;;;;4966648;28;20024;-72
2023/08/29 10:45:59;;;;;;;1.92;1.20;;;20.20;99.90;;;;;;4956387;28;20107;-72
2023/08/29 10:48:46;;;;;;;2.88;1.80;;;20.20;99.90;;;;;;4950077;28;20019;-72
2023/08/29 10:51:15;;;;;;;2.13;1.45;;;20.20;99.90;;;;;;4959253;28;20055;-72
2023/08/29 10:53:47;;;;;;;3.33;1.70;;;20.10;99.90;;;;;;4947346;29;20037;-72
2023/08/29 10:56:14;;;;;;;3.55;1.40;;;20.10;99.90;;;;;;4967124;28;20031;-72
2023/08/29 10:58:41;;;;;;;3.20;1.85;;;20.00;99.90;;;;;;4961987;28;20102;-72
2023/08/29 11:01:26;;;;;;;3.08;1.60;;;20.00;99.90;;;;;;4952690;29;20027;-72
2023/08/29 11:03:53;;;;;;;4.13;2.00;;;20.00;99.90;;;;;;4958327;28;20280;-72
2023/08/29 11:06:23;;;;;;;5.60;2.78;;;19.90;99.90;;;;;;4953983;28;20054;-72
2023/08/29 11:08:50;;;;;;;3.33;2.10;;;19.80;99.90;;;;;;4957249;28;20039;-72
2023/08/29 11:11:22;;;;;;;3.05;2.40;;;19.80;99.90;;;;;;4963882;28;20031;-72
2023/08/29 11:14:08;;;;;;;4.97;2.30;;;19.80;99.90;;;;;;4956454;28;20047;-72
2023/08/29 11:16:36;;;;;;;3.58;2.05;;;19.80;99.90;;;;;;4965253;28;20055;-72
2023/08/29 11:19:15;;;;;;;4.55;2.20;;;19.80;99.90;;;;;;4947419;28;20054;-72
2023/08/29 11:21:45;;;;;;;9.82;2.88;;;19.80;99.90;;;;;;4960492;28;20599;-72
2023/08/29 11:24:11;;;;;;;4.47;2.00;;;19.80;99.90;;;;;;4962471;28;20027;-72
2023/08/29 11:26:43;;;;;;;4.10;2.30;;;19.80;99.90;;;;;;4939656;29;20533;-72
2023/08/29 11:29:09;;;;;;;4.35;2.33;;;19.80;99.90;;;;;;4938564;29;20110;-72
2023/08/29 11:31:47;;;;;;;3.85;2.38;;;19.80;99.90;;;;;;4954240;28;20031;-72
2023/08/29 11:34:22;;;;;;;5.13;2.67;;;19.80;99.90;;;;;;4958098;28;20019;-73
2023/08/29 11:36:50;;;;;;;4.22;2.30;;;19.80;99.90;;;;;;4954572;28;20047;-72
2023/08/29 11:39:22;;;;;;;3.88;2.33;;;19.80;99.90;;;;;;4954720;28;20055;-72
2023/08/29 11:41:48;;;;;;;3.25;2.70;;;19.80;99.90;;;;;;4945838;28;20039;-72
2023/08/29 11:44:15;;;;;;;5.88;2.88;;;19.90;99.90;;;;;;4963889;28;20034;-72
2023/08/29 11:46:43;;;;;;;4.35;2.80;;;20.00;99.90;;;;;;4960439;28;20031;-72
2023/08/29 11:49:15;;;;;;;6.63;3.03;;;20.00;99.90;;;;;;4968215;28;20065;-72
2023/08/29 11:51:41;;;;;;;4.38;3.22;;;20.00;99.90;;;;;;4952177;28;20027;-72
2023/08/29 11:54:45;;;;;;;4.60;3.08;;;20.00;99.90;;;;;;4970567;28;20027;-72
2023/08/29 11:57:13;;;;;;;3.50;2.63;;;20.10;99.90;;;;;;4959699;28;20014;-72
2023/08/29 11:59:43;;;;;;;6.22;2.90;;;20.10;99.90;;;;;;4961787;28;20027;-72
2023/08/29 12:02:16;;;;;;;3.78;2.55;;;20.20;99.90;;;;;;4959296;28;20027;-73
2023/08/29 12:04:52;;;;;;;2.80;2.25;;;20.30;99.90;;;;;;4941270;28;20034;-72
2023/08/29 12:07:21;;;;;;;4.20;2.80;;;20.30;99.90;;;;;;4955698;28;20090;-72
2023/08/29 12:09:48;;;;;;;3.33;2.45;;;20.40;99.90;;;;;;4958894;28;20035;-72
2023/08/29 12:12:35;;;;;;;5.47;2.53;;;20.30;99.90;;;;;;4942529;29;20067;-72
2023/08/29 12:15:11;;;;;;;3.78;2.30;;;20.30;99.90;;;;;;4950860;28;20030;-72
2023/08/29 12:17:47;;;;;;;5.38;2.30;;;20.30;99.90;;;;;;4935927;28;20489;-72
2023/08/29 12:20:15;;;;;;;3.70;2.28;;;20.30;99.90;;;;;;4968060;28;20031;-72
2023/08/29 12:22:48;;;;;;;4.13;2.20;;;20.40;99.90;;;;;;4960281;28;20542;-72
2023/08/29 12:25:15;;;;;;;4.93;2.30;;;20.50;99.90;;;;;;4961402;28;20035;-72
2023/08/29 12:27:44;;;;;;;3.33;2.00;;;20.50;99.90;;;;;;4942409;28;20026;-72
2023/08/29 12:30:14;;;;;;;3.75;2.50;;;20.60;99.90;;;;;;4955346;28;20105;-72
2023/08/29 12:32:44;;;;;;;6.37;2.50;;;20.60;99.90;;;;;;4942093;28;20015;-72
2023/08/29 12:35:11;;;;;;;3.08;2.40;;;20.60;99.90;;;;;;4970798;28;20054;-72
2023/08/29 12:37:38;;;;;;;3.80;2.28;;;20.70;99.90;;;;;;4961668;28;20036;-72
2023/08/29 12:40:05;;;;;;;6.28;4.47;;;20.70;99.90;;;;;;4965194;28;20035;-72
2023/08/29 12:42:37;;;;;;;11.57;10.40;;;20.70;99.90;;;;;;4947420;28;20397;-72
2023/08/29 12:45:06;;;;;;;12.95;11.50;;;20.80;99.90;;;;;;4965406;28;20019;-72
2023/08/29 12:47:37;;;;;;;7.10;4.88;;;20.80;99.90;;;;;;4942788;28;20027;-73
2023/08/29 12:50:06;;;;;;;6.20;4.55;;;20.80;99.90;;;;;;4966290;28;20027;-72